createdAt,value
2023-03-06T00:00:56.603Z,43.67
2023-03-06T00:03:27.972Z,41.77
2023-03-06T00:05:58.999Z,50.97
2023-03-06T00:08:29.641Z,49.07
2023-03-06T00:10:58.358Z,55.77
2023-03-06T00:13:30.140Z,49.17
2023-03-06T00:16:00.919Z,46.93
2023-03-06T00:18:32.102Z,45.10
2023-03-06T00:21:01.557Z,45.60
2023-03-06T00:23:29.649Z,44.13
2023-03-06T00:25:57.624Z,40.40
2023-03-06T00:28:25.583Z,40.07
2023-03-06T00:30:53.567Z,41.67
2023-03-06T00:33:21.556Z,39.27
2023-03-06T00:35:49.558Z,40.97
2023-03-06T00:38:18.983Z,37.07
2023-03-06T00:40:47.018Z,40.10
2023-03-06T00:43:15.283Z,38.40
2023-03-06T00:45:43.453Z,43.40
2023-03-06T00:48:11.626Z,41.27
2023-03-06T00:50:39.823Z,38.40
2023-03-06T00:53:07.935Z,42.70
2023-03-06T00:55:37.285Z,42.93
2023-03-06T00:58:05.258Z,38.43
2023-03-06T01:00:33.250Z,39.97
2023-03-06T01:03:01.285Z,40.40
2023-03-06T01:05:29.461Z,41.93
2023-03-06T01:07:57.687Z,40.47
2023-03-06T01:10:25.654Z,39.33
2023-03-06T01:12:55.157Z,40.90
2023-03-06T01:15:23.471Z,37.77
2023-03-06T01:17:55.162Z,39.57
2023-03-06T01:20:23.504Z,38.63
2023-03-06T01:22:51.496Z,39.33
2023-03-06T01:25:19.704Z,37.07
2023-03-06T01:27:47.719Z,34.63
2023-03-06T01:30:17.281Z,38.87
2023-03-06T01:32:45.411Z,42.03
2023-03-06T01:35:13.752Z,42.40
2023-03-06T01:37:41.985Z,38.80
2023-03-06T01:40:11.727Z,36.73
2023-03-06T01:42:39.764Z,39.50
2023-03-06T01:45:29.946Z,36.43
2023-03-06T01:47:59.272Z,41.33
2023-03-06T01:50:27.288Z,42.63
2023-03-06T01:52:59.302Z,38.07
2023-03-06T01:55:32.122Z,37.17
2023-03-06T01:58:04.667Z,40.20
2023-03-06T02:00:32.848Z,43.27
2023-03-06T02:03:08.680Z,40.07
2023-03-06T02:05:36.989Z,40.40
2023-03-06T02:08:06.918Z,45.97
2023-03-06T02:10:35.485Z,42.13
2023-03-06T02:13:04.048Z,39.20
2023-03-06T02:15:32.345Z,43.67
2023-03-06T02:18:03.118Z,41.27
2023-03-06T02:20:38.176Z,41.47
2023-03-06T02:23:12.316Z,43.30
2023-03-06T02:25:44.745Z,51.10
2023-03-06T02:28:14.768Z,48.47
2023-03-06T02:30:44.440Z,47.83
2023-03-06T02:33:14.291Z,42.30
2023-03-06T02:35:49.373Z,44.63
2023-03-06T02:38:20.104Z,44.30
2023-03-06T02:40:52.180Z,40.33
2023-03-06T02:43:24.526Z,41.40
2023-03-06T02:45:53.482Z,44.80
2023-03-06T02:48:22.000Z,47.83
2023-03-06T02:50:50.805Z,40.83
2023-03-06T02:53:21.450Z,40.43
2023-03-06T02:55:51.297Z,38.97
2023-03-06T02:58:20.626Z,42.07
2023-03-06T03:00:49.958Z,40.17
2023-03-06T03:03:18.802Z,39.30
2023-03-06T03:05:46.808Z,42.33
2023-03-06T03:08:14.889Z,40.47
2023-03-06T03:10:43.089Z,43.53
2023-03-06T03:13:13.326Z,40.30
2023-03-06T03:15:41.303Z,41.57
2023-03-06T03:18:10.335Z,44.67
2023-03-06T03:20:38.445Z,40.67
2023-03-06T03:23:06.373Z,40.20
2023-03-06T03:25:34.510Z,40.77
2023-03-06T03:28:02.521Z,41.93
2023-03-06T03:30:32.118Z,36.27
2023-03-06T03:33:00.092Z,36.63
2023-03-06T03:35:28.182Z,35.43
2023-03-06T03:37:56.128Z,39.43
2023-03-06T03:40:24.206Z,35.30
2023-03-06T03:42:52.168Z,35.50
2023-03-06T03:45:20.364Z,38.53
2023-03-06T03:47:52.537Z,37.57
2023-03-06T03:50:20.874Z,40.13
2023-03-06T03:52:49.094Z,37.87
2023-03-06T03:55:17.099Z,39.57
2023-03-06T03:57:47.912Z,36.03
2023-03-06T04:00:17.103Z,37.27
2023-03-06T04:02:45.764Z,38.80
2023-03-06T04:05:16.668Z,39.73
2023-03-06T04:07:45.050Z,40.80
2023-03-06T04:10:14.424Z,38.83
2023-03-06T04:12:42.453Z,37.40
2023-03-06T04:15:11.134Z,39.37
2023-03-06T04:17:39.346Z,35.90
2023-03-06T04:20:08.382Z,39.87
2023-03-06T04:22:37.806Z,38.30
2023-03-06T04:25:06.751Z,39.90
2023-03-06T04:27:34.839Z,36.53
2023-03-06T04:30:03.021Z,32.40
2023-03-06T04:32:30.977Z,34.03
2023-03-06T04:34:59.205Z,34.47
2023-03-06T04:37:27.750Z,37.20
2023-03-06T04:39:58.195Z,35.67
2023-03-06T04:42:26.272Z,35.93
2023-03-06T04:44:54.322Z,33.63
2023-03-06T04:47:22.334Z,32.37
2023-03-06T04:49:50.554Z,36.47
2023-03-06T04:52:18.503Z,33.20
2023-03-06T04:54:46.581Z,33.60
2023-03-06T04:57:16.213Z,33.90
2023-03-06T04:59:44.285Z,35.53
2023-03-06T05:02:12.513Z,33.77
2023-03-06T05:04:40.570Z,34.10
2023-03-06T05:07:08.649Z,32.67
2023-03-06T05:09:39.065Z,33.43
2023-03-06T05:12:07.599Z,32.60
2023-03-06T05:14:37.264Z,30.93
2023-03-06T05:17:05.344Z,31.93
2023-03-06T05:19:33.304Z,34.73
2023-03-06T05:22:01.239Z,35.20
2023-03-06T05:24:29.425Z,29.43
2023-03-06T05:26:57.477Z,30.00
2023-03-06T05:29:25.627Z,31.60
2023-03-06T05:31:55.021Z,34.83
2023-03-06T05:34:23.010Z,31.03
2023-03-06T05:36:51.074Z,34.30
2023-03-06T05:39:19.062Z,31.27
2023-03-06T05:41:47.053Z,31.90
2023-03-06T05:44:15.289Z,39.37
2023-03-06T05:46:43.298Z,30.27
2023-03-06T05:49:12.847Z,30.60
2023-03-06T05:51:40.874Z,31.70
2023-03-06T05:54:09.000Z,32.27
2023-03-06T05:56:36.918Z,33.43
2023-03-06T05:59:05.010Z,30.33
2023-03-06T06:01:32.967Z,30.97
2023-03-06T06:04:00.987Z,31.10
2023-03-06T06:06:30.311Z,32.00
2023-03-06T06:08:58.228Z,28.50
2023-03-06T06:11:26.269Z,31.30
2023-03-06T06:13:54.200Z,33.57
2023-03-06T06:16:22.212Z,33.30
2023-03-06T06:18:50.187Z,28.67
2023-03-06T06:21:18.207Z,32.47
2023-03-06T06:23:47.687Z,32.20
2023-03-06T06:26:15.900Z,31.83
2023-03-06T06:28:43.979Z,32.70
2023-03-06T06:31:13.406Z,31.90
2023-03-06T06:33:42.145Z,28.80
2023-03-06T06:36:17.187Z,34.40
2023-03-06T06:38:47.144Z,29.03
2023-03-06T06:44:08.499Z,36.30
2023-03-06T06:47:20.842Z,30.30
2023-03-06T06:49:27.878Z,31.23
2023-03-06T06:51:55.996Z,33.23
2023-03-06T06:54:25.514Z,33.97
2023-03-06T06:56:53.616Z,33.57
2023-03-06T06:59:23.618Z,31.57
2023-03-06T07:01:54.011Z,31.43
2023-03-06T07:04:22.176Z,32.23
2023-03-06T07:06:50.217Z,34.43
2023-03-06T07:09:18.138Z,34.13
2023-03-06T07:11:47.415Z,32.40
2023-03-06T07:14:15.448Z,33.97
2023-03-06T07:16:43.567Z,32.13
2023-03-06T07:19:11.496Z,33.67
2023-03-06T07:21:39.491Z,31.00
2023-03-06T07:24:08.117Z,33.80
2023-03-06T07:26:36.300Z,34.40
2023-03-06T07:29:06.285Z,32.23
2023-03-06T07:31:34.287Z,33.43
2023-03-06T07:34:04.816Z,33.47
2023-03-06T07:36:34.651Z,34.87
2023-03-06T07:39:02.722Z,34.43
2023-03-06T07:41:30.710Z,30.00
2023-03-06T07:43:58.777Z,33.47
2023-03-06T07:46:28.381Z,34.27
2023-03-06T07:48:56.489Z,34.53
2023-03-06T07:51:24.455Z,32.43
2023-03-06T07:53:52.400Z,39.07
2023-03-06T07:56:20.656Z,30.97
2023-03-06T07:58:49.001Z,34.10
2023-03-06T08:01:19.783Z,31.13
2023-03-06T08:03:50.219Z,30.57
2023-03-06T08:06:20.384Z,33.17
2023-03-06T08:08:49.967Z,29.60
2023-03-06T08:11:20.267Z,31.67
2023-03-06T08:13:49.353Z,31.07
2023-03-06T08:16:18.446Z,33.37
2023-03-06T08:18:46.758Z,32.60
2023-03-06T08:21:17.737Z,33.33
2023-03-06T08:23:46.803Z,32.60
2023-03-06T08:26:17.626Z,31.97
2023-03-06T08:28:46.200Z,29.30
2023-03-06T08:31:27.318Z,32.23
2023-03-06T08:33:56.745Z,29.53
2023-03-06T08:36:26.185Z,31.13
2023-03-06T08:38:54.507Z,30.67
2023-03-06T08:41:22.673Z,28.53
2023-03-06T08:43:51.311Z,30.67
2023-03-06T08:46:20.829Z,31.27
2023-03-06T08:48:49.256Z,32.23
2023-03-06T08:51:19.015Z,30.97
2023-03-06T08:53:48.853Z,34.30
2023-03-06T08:56:18.240Z,31.20
2023-03-06T08:58:46.365Z,34.03
2023-03-06T09:01:15.740Z,29.87
2023-03-06T09:03:44.021Z,28.10
2023-03-06T09:06:12.545Z,30.87
2023-03-06T09:08:43.107Z,27.13
2023-03-06T09:11:13.337Z,31.63
2023-03-06T09:13:42.319Z,26.30
2023-03-06T09:16:12.158Z,27.40
2023-03-06T09:18:40.669Z,24.50
2023-03-06T09:21:10.673Z,30.80
2023-03-06T09:23:40.089Z,24.13
2023-03-06T09:26:08.730Z,26.60
2023-03-06T09:28:40.845Z,22.23
2023-03-06T09:31:10.902Z,30.03
2023-03-06T09:33:39.442Z,25.90
2023-03-06T09:36:09.552Z,23.10
2023-03-06T09:38:37.509Z,26.03
2023-03-06T10:17:18.870Z,20.27
2023-03-06T10:19:47.776Z,20.67
2023-03-06T10:22:26.190Z,21.37
2023-03-06T10:25:00.639Z,19.47
2023-03-06T10:27:39.375Z,17.43
2023-03-06T10:30:25.990Z,21.53
2023-03-06T10:32:58.857Z,22.63
2023-03-06T10:35:31.088Z,23.73
2023-03-06T10:38:03.729Z,24.07
2023-03-06T10:40:39.677Z,24.40
2023-03-06T10:43:12.398Z,25.07
2023-03-06T10:45:51.521Z,23.23
2023-03-06T10:48:23.420Z,19.17
2023-03-06T10:50:55.473Z,22.00
2023-03-06T10:53:26.192Z,19.67
2023-03-06T10:55:57.146Z,23.60
2023-03-06T10:58:27.895Z,19.30
2023-03-06T11:01:06.997Z,21.10
2023-03-06T11:03:39.517Z,20.53
2023-03-06T11:06:13.088Z,20.80
2023-03-06T11:08:43.382Z,22.47
2023-03-06T11:11:14.485Z,22.53
2023-03-06T11:13:45.069Z,18.53
2023-03-06T11:16:28.521Z,20.47
2023-03-06T11:18:59.845Z,21.07
2023-03-06T11:21:31.698Z,20.77
2023-03-06T11:24:05.552Z,22.00
2023-03-06T11:26:42.697Z,21.10
2023-03-06T11:29:29.390Z,21.30
2023-03-06T11:32:05.401Z,20.90
2023-03-06T11:34:42.805Z,20.83
2023-03-06T11:37:19.102Z,22.80
2023-03-06T11:39:54.819Z,19.87
2023-03-06T11:42:28.038Z,19.27
2023-03-06T11:45:09.951Z,18.43
2023-03-06T11:47:42.338Z,21.17
2023-03-06T11:50:24.021Z,19.00
2023-03-06T11:52:56.221Z,20.93
2023-03-06T11:55:36.845Z,19.07
2023-03-06T11:58:23.473Z,20.17
2023-03-06T12:00:57.173Z,18.57
2023-03-06T12:03:57.820Z,18.63
2023-03-06T12:06:37.950Z,17.93
2023-03-06T12:09:22.068Z,15.87
2023-03-06T12:12:01.435Z,16.83
2023-03-06T12:14:34.735Z,14.40
2023-03-06T12:17:15.205Z,17.07
2023-03-06T12:33:24.237Z,16.53
2023-03-06T12:36:01.491Z,15.27
2023-03-06T12:38:50.066Z,14.93
2023-03-06T12:41:26.786Z,13.43
2023-03-06T12:44:21.253Z,14.00
2023-03-06T12:46:54.694Z,12.17
2023-03-06T12:49:32.523Z,10.87
2023-03-06T12:52:03.316Z,10.97
2023-03-06T12:54:34.652Z,12.53
2023-03-06T12:57:02.751Z,12.80
2023-03-06T12:59:44.396Z,12.10
2023-03-06T13:03:06.092Z,12.23
2023-03-06T13:06:04.905Z,14.47
2023-03-06T13:09:06.233Z,12.43
2023-03-06T13:12:11.068Z,11.20
2023-03-06T13:14:57.562Z,10.67
2023-03-06T13:17:37.179Z,10.30
2023-03-06T13:20:41.746Z,10.13
2023-03-06T13:23:47.524Z,10.30
2023-03-06T13:26:48.688Z,10.00
2023-03-06T13:29:53.643Z,11.40
2023-03-06T13:32:31.846Z,11.43
2023-03-06T13:34:59.952Z,10.30
2023-03-06T13:37:39.402Z,9.17
2023-03-06T13:40:40.746Z,10.77
2023-03-06T13:43:25.189Z,8.23
2023-03-06T13:45:54.673Z,9.20
2023-03-06T13:48:43.756Z,8.77
2023-03-06T13:51:24.725Z,8.87
2023-03-06T13:54:24.309Z,9.43
2023-03-06T13:57:17.747Z,11.97
2023-03-06T14:00:18.995Z,9.97
2023-03-06T14:03:25.245Z,10.53
2023-03-06T14:05:53.947Z,10.03
2023-03-06T14:08:24.196Z,10.77
2023-03-06T14:11:01.905Z,10.60
2023-03-06T14:13:45.230Z,11.67
2023-03-06T14:16:22.178Z,11.50
2023-03-06T14:18:53.552Z,10.57
2023-03-06T14:21:30.523Z,10.83
2023-03-06T14:24:01.301Z,11.43
2023-03-06T14:26:33.786Z,11.50
2023-03-06T14:29:03.099Z,10.43
2023-03-06T14:31:33.935Z,12.97
2023-03-06T14:34:05.274Z,11.67
2023-03-06T14:36:36.997Z,14.50
2023-03-06T14:39:09.900Z,12.10
2023-03-06T14:41:39.254Z,11.47
2023-03-06T14:44:16.664Z,12.20
2023-03-06T14:46:45.376Z,11.80
2023-03-06T14:49:16.422Z,10.23
2023-03-06T14:51:47.783Z,10.67
2023-03-06T14:54:19.677Z,10.50
2023-03-06T14:56:51.609Z,10.53
2023-03-06T14:59:22.194Z,13.47
2023-03-06T15:01:52.698Z,12.73
2023-03-06T15:04:27.016Z,12.90
2023-03-06T15:06:56.848Z,11.17
2023-03-06T15:09:29.532Z,13.00
2023-03-06T15:11:59.874Z,11.00
2023-03-06T15:14:32.531Z,11.87
2023-03-06T15:17:21.888Z,13.03
2023-03-06T15:19:54.408Z,11.00
2023-03-06T15:22:28.289Z,11.43
2023-03-06T15:25:16.753Z,11.60
2023-03-06T15:27:49.834Z,11.40
2023-03-06T15:30:27.399Z,12.07
2023-03-06T15:33:11.687Z,12.93
2023-03-06T15:35:41.447Z,11.93
2023-03-06T15:38:25.397Z,11.87
2023-03-06T15:54:25.470Z,12.87
2023-03-06T15:56:54.314Z,12.97
2023-03-06T15:59:25.841Z,13.20
2023-03-06T16:01:55.191Z,13.83
2023-03-06T16:04:23.901Z,14.10
2023-03-06T16:06:52.533Z,12.50
2023-03-06T16:09:20.569Z,11.50
2023-03-06T16:11:50.084Z,12.63
2023-03-06T16:14:21.526Z,14.63
2023-03-06T16:16:50.223Z,12.53
2023-03-06T16:19:27.149Z,14.07
2023-03-06T16:21:55.828Z,12.80
2023-03-06T16:24:26.177Z,11.53
2023-03-06T16:26:56.371Z,12.77
2023-03-06T16:29:29.162Z,14.97
2023-03-06T16:32:01.909Z,12.63
2023-03-06T16:34:30.122Z,13.00
2023-03-06T16:36:58.068Z,11.63
2023-03-06T16:39:26.268Z,11.73
2023-03-06T16:41:56.633Z,12.10
2023-03-06T16:44:24.705Z,12.30
2023-03-06T16:46:52.754Z,11.87
2023-03-06T16:49:22.688Z,14.63
2023-03-06T16:51:51.082Z,11.83
2023-03-06T16:54:28.220Z,11.63
2023-03-06T16:56:57.616Z,12.37
2023-03-06T16:59:26.022Z,12.87
2023-03-06T17:01:54.148Z,13.43
2023-03-06T17:04:22.111Z,13.50
2023-03-06T17:06:50.022Z,10.67
2023-03-06T17:09:19.633Z,13.07
2023-03-06T17:11:48.486Z,13.97
2023-03-06T17:14:18.996Z,11.63
2023-03-06T17:16:47.855Z,12.00
2023-03-06T17:19:16.314Z,15.70
2023-03-06T17:21:45.102Z,12.07
2023-03-06T17:24:15.371Z,13.27
2023-03-06T17:26:44.429Z,12.67
2023-03-06T17:29:12.785Z,12.83
2023-03-06T17:31:43.030Z,12.07
2023-03-06T17:34:13.679Z,15.67
2023-03-06T17:36:41.637Z,12.77
2023-03-06T17:39:10.333Z,13.07
2023-03-06T17:41:38.358Z,13.30
2023-03-06T17:44:06.697Z,13.10
2023-03-06T17:46:35.006Z,14.67
2023-03-06T17:49:04.457Z,14.77
2023-03-06T17:51:32.395Z,17.23
2023-03-06T17:54:00.391Z,19.23
2023-03-06T17:56:30.911Z,18.93
2023-03-06T17:58:59.710Z,20.40
2023-03-06T18:01:29.986Z,21.77
2023-03-06T18:03:58.524Z,15.70
2023-03-06T18:06:30.190Z,15.97
2023-03-06T18:08:58.480Z,22.43
2023-03-06T18:11:26.552Z,20.53
2023-03-06T18:13:54.843Z,22.40
2023-03-06T18:16:24.700Z,20.50
2023-03-06T18:18:53.673Z,25.20
2023-03-06T18:21:24.670Z,19.20
2023-03-06T18:23:54.675Z,20.47
2023-03-06T18:26:24.788Z,24.60
2023-03-06T18:28:54.915Z,46.43
2023-03-06T18:31:25.567Z,439.90
2023-03-06T18:33:55.085Z,873.67
2023-03-06T18:36:24.755Z,466.57
2023-03-06T18:38:54.660Z,419.97
2023-03-06T18:41:23.619Z,90.30
2023-03-06T18:43:53.227Z,55.67
2023-03-06T18:46:21.278Z,180.80
2023-03-06T18:48:49.273Z,190.90
2023-03-06T18:51:19.348Z,176.67
2023-03-06T18:53:48.785Z,69.60
2023-03-06T18:56:20.140Z,39.87
2023-03-06T18:58:48.794Z,91.87
2023-03-06T19:01:16.915Z,105.33
2023-03-06T19:03:45.046Z,70.43
2023-03-06T19:06:16.520Z,35.80
2023-03-06T19:08:44.855Z,22.17
2023-03-06T19:11:14.537Z,26.93
2023-03-06T19:13:44.698Z,71.43
2023-03-06T19:16:18.737Z,39.60
2023-03-06T19:18:46.705Z,29.40
2023-03-06T19:21:16.471Z,30.23
2023-03-06T19:23:44.841Z,28.07
2023-03-06T19:26:12.822Z,23.50
2023-03-06T19:28:43.722Z,27.53
2023-03-06T19:31:13.776Z,25.97
2023-03-06T19:33:43.510Z,25.07
2023-03-06T19:36:12.795Z,28.00
2023-03-06T19:38:41.355Z,39.37
2023-03-06T19:41:13.594Z,51.77
2023-03-06T19:43:44.451Z,63.97
2023-03-06T19:46:13.796Z,70.33
2023-03-06T19:48:42.224Z,35.27
2023-03-06T19:51:11.065Z,29.13
2023-03-06T19:53:39.885Z,35.27
2023-03-06T19:56:09.668Z,31.07
2023-03-06T19:58:37.747Z,29.83
2023-03-06T20:01:09.509Z,31.47
2023-03-06T20:03:37.955Z,38.40
2023-03-06T20:06:09.152Z,39.23
2023-03-06T20:08:37.234Z,37.33
2023-03-06T20:11:05.591Z,63.20
2023-03-06T20:13:33.837Z,121.27
2023-03-06T20:16:06.620Z,277.03
2023-03-06T20:18:35.957Z,151.30
2023-03-06T20:21:05.655Z,161.50
2023-03-06T20:23:34.633Z,117.30
2023-03-06T20:26:04.249Z,60.83
2023-03-06T20:28:32.312Z,36.63
2023-03-06T20:31:00.572Z,30.30
2023-03-06T20:33:28.560Z,35.77
2023-03-06T20:35:57.977Z,38.37
2023-03-06T20:38:26.185Z,30.17
2023-03-06T20:40:55.987Z,30.03
2023-03-06T20:43:23.937Z,41.50
2023-03-06T20:45:59.570Z,35.87
2023-03-06T20:48:27.633Z,29.00
2023-03-06T20:51:05.789Z,29.37
2023-03-06T20:53:35.212Z,38.87
2023-03-06T20:56:03.331Z,47.67
2023-03-06T20:58:32.629Z,44.13
2023-03-06T21:01:02.418Z,64.03
2023-03-06T21:03:30.596Z,35.63
2023-03-06T21:05:58.759Z,42.37
2023-03-06T21:08:28.107Z,41.60
2023-03-06T21:10:56.020Z,59.83
2023-03-06T21:13:24.159Z,45.17
2023-03-06T21:15:52.153Z,39.97
2023-03-06T21:18:20.211Z,35.13
2023-03-06T21:20:48.262Z,36.70
2023-03-06T21:23:16.232Z,35.40
2023-03-06T21:25:49.846Z,37.23
2023-03-06T21:28:18.752Z,35.40
2023-03-06T21:30:47.331Z,36.73
2023-03-06T21:33:16.185Z,41.43
2023-03-06T21:35:46.018Z,37.33
2023-03-06T21:38:14.828Z,37.67
2023-03-06T21:40:44.694Z,39.63
2023-03-06T21:43:15.850Z,42.57
2023-03-06T21:45:44.930Z,43.53
2023-03-06T21:48:13.360Z,43.87
2023-03-06T21:50:41.425Z,49.87
2023-03-06T21:53:10.313Z,44.40
2023-03-06T21:55:40.534Z,42.33
2023-03-06T21:58:09.551Z,41.27
2023-03-06T22:00:40.686Z,41.17
2023-03-06T22:03:08.669Z,42.47
2023-03-06T22:05:36.624Z,41.40
2023-03-06T22:08:04.555Z,40.97
2023-03-06T22:10:32.685Z,44.73
2023-03-06T22:13:00.616Z,45.33
2023-03-06T22:15:28.602Z,43.23
2023-03-06T22:17:58.206Z,39.37
2023-03-06T22:20:26.153Z,40.77
2023-03-06T22:22:54.101Z,36.43
2023-03-06T22:25:22.176Z,40.07
2023-03-06T22:27:50.096Z,39.00
2023-03-06T22:30:18.978Z,38.23
2023-03-06T22:32:46.969Z,40.60
2023-03-06T22:35:16.499Z,38.67
2023-03-06T22:37:44.493Z,41.57
2023-03-06T22:40:13.444Z,38.97
2023-03-06T22:42:41.526Z,39.57
2023-03-06T22:45:10.689Z,35.70
2023-03-06T22:47:38.863Z,35.97
2023-03-06T22:50:07.580Z,35.97
2023-03-06T22:52:36.969Z,37.40
2023-03-06T22:55:05.665Z,38.70
2023-03-06T22:57:33.649Z,35.00
2023-03-06T23:00:01.723Z,40.43
2023-03-06T23:02:34.880Z,36.47
2023-03-06T23:05:02.939Z,38.07
2023-03-06T23:07:30.937Z,35.00
2023-03-06T23:10:00.611Z,41.30
2023-03-06T23:12:28.624Z,41.63
2023-03-06T23:14:56.590Z,39.67
2023-03-06T23:17:24.982Z,32.67
2023-03-06T23:19:53.185Z,34.00
2023-03-06T23:22:21.158Z,34.17
2023-03-06T23:24:49.500Z,34.17
2023-03-06T23:27:19.638Z,31.83
2023-03-06T23:29:50.566Z,30.83
2023-03-06T23:32:18.586Z,30.83
2023-03-06T23:34:49.017Z,32.40
2023-03-06T23:37:19.860Z,30.93
2023-03-06T23:39:48.039Z,32.33
2023-03-06T23:42:16.061Z,30.47
2023-03-06T23:44:45.391Z,33.50
2023-03-06T23:47:13.746Z,31.00
2023-03-06T23:49:41.724Z,29.57
2023-03-06T23:52:09.727Z,33.70
2023-03-06T23:54:37.724Z,32.37
2023-03-06T23:57:05.656Z,31.30
2023-03-06T23:59:33.627Z,35.67
